Time;durP1;ratioP1;P1;durP2;ratioP2;P2;SDS_P1;SDS_P2;PMS_P1;PMS_P2;Temp;Humidity;BMP_temperature;BMP_pressure;BME280_temperature;BME280_humidity;BME280_pressure;Samples;Min_cycle;Max_cycle;Signal;HPM_P1;HPM_P2
2021/08/22 00:01:02;;;;;;;10.75;9.75;;;17.90;74.80;;;;;;4934027;29;20070;-70
2021/08/22 00:03:34;;;;;;;11.45;10.30;;;17.90;74.90;;;;;;4932820;29;20679;-72
2021/08/22 00:06:06;;;;;;;11.82;10.63;;;17.90;75.50;;;;;;4932172;29;20051;-71
2021/08/22 00:08:44;;;;;;;12.70;11.40;;;17.80;76.10;;;;;;4932978;29;20052;-71
2021/08/22 00:11:16;;;;;;;12.15;10.95;;;17.70;77.00;;;;;;4934257;29;20103;-73
2021/08/22 00:13:48;;;;;;;11.40;10.27;;;17.60;76.60;;;;;;4933607;29;20130;-72
2021/08/22 00:16:20;;;;;;;11.40;10.30;;;17.60;77.40;;;;;;4931403;29;20058;-71
2021/08/22 00:18:52;;;;;;;11.32;10.15;;;17.60;77.20;;;;;;4933172;29;20109;-72
2021/08/22 00:21:23;;;;;;;10.93;9.82;;;17.60;76.50;;;;;;4932179;29;20655;-71
2021/08/22 00:23:55;;;;;;;10.70;9.60;;;17.60;76.40;;;;;;4935331;29;20135;-71
2021/08/22 00:26:27;;;;;;;11.60;10.02;;;17.60;76.60;;;;;;4934069;29;20048;-71
2021/08/22 00:28:59;;;;;;;10.52;9.55;;;17.60;76.60;;;;;;4934400;29;20061;-71
2021/08/22 00:31:31;;;;;;;10.52;9.52;;;17.70;76.60;;;;;;4934670;29;20058;-73
2021/08/22 00:34:03;;;;;;;10.82;9.80;;;17.70;76.40;;;;;;4921555;29;20043;-71
2021/08/22 00:36:35;;;;;;;11.63;10.48;;;17.70;76.60;;;;;;4939293;29;20131;-71
2021/08/22 00:39:07;;;;;;;11.35;10.30;;;17.60;77.30;;;;;;4937698;29;20130;-71
2021/08/22 00:41:39;;;;;;;10.63;9.63;;;17.50;77.10;;;;;;4936194;29;20391;-72
2021/08/22 00:44:11;;;;;;;10.90;9.90;;;17.60;76.70;;;;;;4940320;29;20047;-74
2021/08/22 00:46:43;;;;;;;11.73;9.38;;;17.60;76.50;;;;;;4936326;29;20066;-72
2021/08/22 00:49:15;;;;;;;11.05;9.90;;;17.60;76.40;;;;;;4937933;29;20079;-73
2021/08/22 00:51:48;;;;;;;11.07;10.07;;;17.50;76.60;;;;;;4934224;29;20051;-73
2021/08/22 00:54:19;;;;;;;10.50;9.48;;;17.50;76.60;;;;;;4940296;29;20502;-72
2021/08/22 00:56:52;;;;;;;12.50;9.73;;;17.40;76.80;;;;;;4934485;29;20059;-72
2021/08/22 00:59:24;;;;;;;11.40;10.40;;;17.40;76.70;;;;;;4935329;29;20055;-73
2021/08/22 01:01:58;;;;;;;11.00;9.98;;;17.40;76.80;;;;;;4935704;29;20859;-71
2021/08/22 01:04:50;;;;;;;10.50;9.52;;;17.40;76.50;;;;;;4935984;29;20071;-73
2021/08/22 01:07:38;;;;;;;9.98;9.07;;;17.40;76.30;;;;;;4936237;29;20128;-71
2021/08/22 01:10:10;;;;;;;11.23;9.88;;;17.50;76.10;;;;;;4936430;29;20120;-72
2021/08/22 01:12:53;;;;;;;10.45;9.45;;;17.50;76.40;;;;;;4934940;29;20479;-72
2021/08/22 01:15:27;;;;;;;10.85;9.85;;;17.50;76.50;;;;;;4936605;29;20047;-72
2021/08/22 01:18:01;;;;;;;10.93;9.82;;;17.60;76.50;;;;;;4934193;29;20043;-73
2021/08/22 01:20:43;;;;;;;10.98;9.98;;;17.60;77.10;;;;;;4937393;29;20128;-75
2021/08/22 01:23:16;;;;;;;10.43;9.38;;;17.50;77.30;;;;;;4935927;29;20048;-72
2021/08/22 01:25:49;;;;;;;10.65;8.98;;;17.50;77.30;;;;;;4935297;29;20043;-73
2021/08/22 01:28:23;;;;;;;13.55;9.95;;;17.50;77.60;;;;;;4937922;29;20057;-72
2021/08/22 01:31:01;;;;;;;11.70;10.57;;;17.50;78.30;;;;;;4934817;29;20134;-73
2021/08/22 01:33:33;;;;;;;11.43;10.32;;;17.50;78.30;;;;;;4935877;29;20054;-72
2021/08/22 01:36:06;;;;;;;11.05;9.88;;;17.50;77.80;;;;;;4935814;29;20555;-72
2021/08/22 01:38:38;;;;;;;10.88;9.75;;;17.60;78.40;;;;;;4932553;29;20090;-73
2021/08/22 01:41:10;;;;;;;10.63;9.60;;;17.50;77.20;;;;;;4936660;29;20079;-72
2021/08/22 01:43:44;;;;;;;10.10;9.20;;;17.60;76.90;;;;;;4935973;29;20160;-73
2021/08/22 01:46:18;;;;;;;10.07;9.18;;;17.60;76.80;;;;;;4934719;29;20120;-73
2021/08/22 01:48:51;;;;;;;10.98;9.88;;;17.60;77.70;;;;;;4934776;29;20538;-73
2021/08/22 01:51:30;;;;;;;9.98;9.07;;;17.60;77.50;;;;;;4942574;29;20762;-74
2021/08/22 01:54:07;;;;;;;10.63;9.65;;;17.70;77.10;;;;;;4936402;29;20044;-73
2021/08/22 01:56:40;;;;;;;10.82;9.88;;;17.70;77.20;;;;;;4933705;29;20569;-71
2021/08/22 01:59:12;;;;;;;10.35;9.35;;;17.70;77.00;;;;;;4935772;29;20107;-72
2021/08/22 02:01:44;;;;;;;13.23;10.60;;;17.80;77.50;;;;;;4935354;29;20178;-74
2021/08/22 02:04:22;;;;;;;11.30;10.20;;;17.80;77.10;;;;;;4933997;29;20048;-73
2021/08/22 02:07:24;;;;;;;12.38;11.00;;;17.80;77.70;;;;;;4933601;29;20162;-72
2021/08/22 02:10:02;;;;;;;12.60;10.45;;;17.80;77.80;;;;;;4934878;29;20059;-71
2021/08/22 02:12:36;;;;;;;10.65;8.52;;;17.80;78.80;;;;;;4932026;29;20051;-72
2021/08/22 02:15:18;;;;;;;8.93;8.13;;;17.70;80.00;;;;;;4934497;29;20051;-72
2021/08/22 02:18:19;;;;;;;12.30;8.18;;;17.80;80.40;;;;;;4936292;29;20120;-72
2021/08/22 02:20:52;;;;;;;9.40;8.10;;;17.80;83.00;;;;;;4932342;29;20069;-74
2021/08/22 02:23:24;;;;;;;9.55;8.63;;;17.70;83.30;;;;;;4934322;29;20455;-72
2021/08/22 02:25:56;;;;;;;8.98;8.02;;;17.60;83.30;;;;;;4938090;29;20048;-73
2021/08/22 02:28:28;;;;;;;8.50;7.78;;;17.60;81.40;;;;;;4933462;29;20060;-72
2021/08/22 02:31:00;;;;;;;8.55;7.60;;;17.50;81.40;;;;;;4934659;29;20214;-72
2021/08/22 02:33:32;;;;;;;9.27;8.43;;;17.50;80.80;;;;;;4934172;29;20074;-74
2021/08/22 02:36:04;;;;;;;9.20;8.35;;;17.50;78.70;;;;;;4935002;29;20070;-72
2021/08/22 02:38:36;;;;;;;8.80;8.00;;;17.50;81.10;;;;;;4934936;29;20047;-74
2021/08/22 02:41:07;;;;;;;9.30;8.45;;;17.50;79.60;;;;;;4935588;29;20055;-72
2021/08/22 02:43:40;;;;;;;9.27;8.48;;;17.40;80.50;;;;;;4934246;29;20722;-71
2021/08/22 02:46:12;;;;;;;9.40;8.50;;;17.40;82.10;;;;;;4933434;29;20222;-72
2021/08/22 02:48:44;;;;;;;9.60;8.80;;;17.20;82.70;;;;;;4932317;29;20054;-73
2021/08/22 02:51:16;;;;;;;9.50;8.50;;;17.20;83.60;;;;;;4933800;29;20055;-72
2021/08/22 02:53:49;;;;;;;9.32;8.52;;;17.00;84.50;;;;;;4933938;29;20047;-73
2021/08/22 02:56:21;;;;;;;9.25;8.35;;;16.90;84.80;;;;;;4930678;29;20043;-74
2021/08/22 02:58:53;;;;;;;9.75;8.80;;;16.80;85.40;;;;;;4932720;29;20120;-72
2021/08/22 03:01:25;;;;;;;8.93;8.13;;;16.80;85.10;;;;;;4932048;29;20055;-73
2021/08/22 03:03:57;;;;;;;9.38;8.57;;;16.80;85.50;;;;;;4933795;29;20055;-72
2021/08/22 03:06:29;;;;;;;9.57;8.45;;;16.80;85.30;;;;;;4931387;29;20051;-73
2021/08/22 03:09:02;;;;;;;9.35;8.45;;;16.80;85.50;;;;;;4933527;29;20047;-74
2021/08/22 03:11:34;;;;;;;9.20;8.30;;;16.80;84.60;;;;;;4939650;29;20052;-73
2021/08/22 03:14:06;;;;;;;9.32;8.43;;;16.80;85.20;;;;;;4933516;29;20138;-72
2021/08/22 03:16:38;;;;;;;9.30;8.38;;;16.70;85.20;;;;;;4932758;29;20054;-73
2021/08/22 03:19:10;;;;;;;9.00;8.18;;;16.70;84.80;;;;;;4933664;29;20104;-72
2021/08/22 03:21:45;;;;;;;9.30;8.40;;;16.60;85.80;;;;;;4933026;29;20126;-73
2021/08/22 03:24:16;;;;;;;9.40;8.60;;;16.50;86.80;;;;;;4931587;29;20142;-74
2021/08/22 03:26:48;;;;;;;9.30;8.48;;;16.50;85.90;;;;;;4933243;29;20052;-72
2021/08/22 03:29:20;;;;;;;9.73;8.82;;;16.50;86.30;;;;;;4933299;29;20071;-73
2021/08/22 03:31:52;;;;;;;8.77;7.88;;;16.60;86.20;;;;;;4934298;29;20534;-73
2021/08/22 03:34:24;;;;;;;9.25;8.35;;;16.60;87.40;;;;;;4934181;29;20147;-74
2021/08/22 03:36:56;;;;;;;9.60;8.13;;;16.50;87.20;;;;;;4935048;29;20166;-73
2021/08/22 03:39:28;;;;;;;9.52;8.63;;;16.50;87.50;;;;;;4932054;29;20048;-72
2021/08/22 03:42:00;;;;;;;9.20;8.40;;;16.50;86.80;;;;;;4933958;29;20111;-73
2021/08/22 03:44:32;;;;;;;9.13;8.32;;;16.50;86.70;;;;;;4934154;29;20055;-75
2021/08/22 03:47:04;;;;;;;9.43;8.43;;;16.50;86.30;;;;;;4932002;29;20072;-73
2021/08/22 03:49:36;;;;;;;9.57;8.63;;;16.50;86.40;;;;;;4934637;29;20075;-73
2021/08/22 03:52:08;;;;;;;8.80;8.00;;;16.50;86.30;;;;;;4932511;29;20491;-73
2021/08/22 03:54:39;;;;;;;8.38;7.68;;;16.50;86.40;;;;;;4935863;29;20043;-73
2021/08/22 03:57:11;;;;;;;9.23;8.40;;;16.50;87.30;;;;;;4934116;29;20159;-73
2021/08/22 03:59:43;;;;;;;10.45;9.55;;;16.50;86.20;;;;;;4934072;29;20158;-74
2021/08/22 04:02:15;;;;;;;8.93;8.13;;;16.50;86.20;;;;;;4933534;29;20078;-75
2021/08/22 04:05:05;;;;;;;9.80;8.82;;;16.50;86.40;;;;;;4929381;29;20051;-75
2021/08/22 04:07:38;;;;;;;9.57;8.70;;;16.50;86.30;;;;;;4932342;29;20157;-74
2021/08/22 04:10:10;;;;;;;9.30;8.38;;;16.50;86.50;;;;;;4934142;29;20166;-75
2021/08/22 04:12:42;;;;;;;8.73;7.82;;;16.50;86.10;;;;;;4934570;29;20220;-75
2021/08/22 04:15:14;;;;;;;8.90;8.13;;;16.50;86.30;;;;;;4935780;29;20071;-73
2021/08/22 04:17:46;;;;;;;9.23;8.32;;;16.50;86.20;;;;;;4936273;29;20104;-73
2021/08/22 04:20:18;;;;;;;9.05;8.30;;;16.50;86.10;;;;;;4939953;29;20075;-72
2021/08/22 04:22:50;;;;;;;9.05;8.25;;;16.50;85.90;;;;;;4935796;29;20065;-73
2021/08/22 04:25:22;;;;;;;9.05;8.25;;;16.50;86.60;;;;;;4938183;29;20075;-73
2021/08/22 04:27:54;;;;;;;9.07;8.27;;;16.40;86.50;;;;;;4936020;29;20087;-72
2021/08/22 04:30:26;;;;;;;9.27;8.50;;;16.30;86.80;;;;;;4936555;29;20059;-74
2021/08/22 04:32:58;;;;;;;9.50;8.57;;;16.40;86.60;;;;;;4936813;29;20453;-74
2021/08/22 04:35:30;;;;;;;9.75;8.85;;;16.40;87.00;;;;;;4937256;29;20592;-75
2021/08/22 04:38:02;;;;;;;9.25;8.45;;;16.40;86.60;;;;;;4935828;29;20054;-73
2021/08/22 04:40:38;;;;;;;9.43;8.57;;;16.40;87.00;;;;;;4936869;29;20154;-73
2021/08/22 04:43:09;;;;;;;9.68;8.88;;;16.30;86.90;;;;;;4937985;29;20676;-73
2021/08/22 04:45:41;;;;;;;9.48;8.68;;;16.40;86.80;;;;;;4935828;29;20047;-73
2021/08/22 04:48:13;;;;;;;9.98;9.07;;;16.40;86.60;;;;;;4936719;29;20066;-74
2021/08/22 04:50:45;;;;;;;9.43;8.63;;;16.40;86.90;;;;;;4934028;29;20054;-73
2021/08/22 04:53:17;;;;;;;10.23;9.43;;;16.30;87.00;;;;;;4937326;29;20118;-75
2021/08/22 04:55:49;;;;;;;9.98;9.18;;;16.40;86.80;;;;;;4935432;29;20134;-73
2021/08/22 04:58:21;;;;;;;9.32;8.43;;;16.40;87.10;;;;;;4937418;29;20135;-74
2021/08/22 05:00:53;;;;;;;9.90;9.00;;;16.40;86.70;;;;;;4935919;29;20059;-74
2021/08/22 05:03:25;;;;;;;9.95;9.15;;;16.40;87.00;;;;;;4943827;29;20101;-72
2021/08/22 05:05:57;;;;;;;9.90;9.05;;;16.50;87.40;;;;;;4939045;29;20105;-75
2021/08/22 05:08:29;;;;;;;10.32;9.43;;;16.40;88.00;;;;;;4939300;29;20128;-76
2021/08/22 05:11:00;;;;;;;10.32;9.52;;;16.30;89.70;;;;;;4936539;29;20522;-75
2021/08/22 05:13:37;;;;;;;10.15;9.35;;;16.20;89.40;;;;;;4939279;29;20154;-75
2021/08/22 05:16:09;;;;;;;10.63;9.68;;;16.20;89.60;;;;;;4934301;29;20079;-74
2021/08/22 05:18:41;;;;;;;9.98;9.13;;;16.10;89.80;;;;;;4936826;29;20118;-75
2021/08/22 05:21:13;;;;;;;10.02;9.13;;;16.10;90.10;;;;;;4935693;29;20540;-74
2021/08/22 05:23:45;;;;;;;9.48;8.68;;;16.00;90.40;;;;;;4936920;29;20661;-73
2021/08/22 05:26:16;;;;;;;10.15;9.25;;;16.00;90.80;;;;;;4935897;29;20163;-75
2021/08/22 05:28:48;;;;;;;10.02;9.13;;;15.90;91.30;;;;;;4933784;29;20052;-75
2021/08/22 05:31:20;;;;;;;10.48;9.55;;;15.90;91.20;;;;;;4935059;29;20051;-75
2021/08/22 05:33:52;;;;;;;10.23;9.32;;;15.80;91.30;;;;;;4938871;29;20052;-75
2021/08/22 05:36:24;;;;;;;9.70;8.90;;;15.90;91.00;;;;;;4934906;29;20162;-75
2021/08/22 05:38:56;;;;;;;9.60;8.80;;;15.90;91.20;;;;;;4937411;29;20051;-76
2021/08/22 05:41:28;;;;;;;9.52;8.73;;;16.00;90.80;;;;;;4933810;29;20051;-75
2021/08/22 05:44:00;;;;;;;9.82;9.02;;;15.90;91.50;;;;;;4937350;29;20047;-76
2021/08/22 05:46:33;;;;;;;10.02;9.23;;;15.80;91.40;;;;;;4935358;29;20047;-75
2021/08/22 05:49:05;;;;;;;10.95;9.98;;;15.80;91.80;;;;;;4936828;29;20047;-75
2021/08/22 05:51:37;;;;;;;10.38;9.48;;;15.80;91.80;;;;;;4933185;29;20123;-75
2021/08/22 05:54:09;;;;;;;10.57;9.68;;;15.80;92.10;;;;;;4933964;29;20071;-75
2021/08/22 05:56:41;;;;;;;10.52;9.73;;;15.80;92.10;;;;;;4934256;29;20467;-76
2021/08/22 05:59:13;;;;;;;10.07;9.27;;;15.90;91.90;;;;;;4938571;29;20139;-76
2021/08/22 06:01:44;;;;;;;10.05;9.15;;;15.90;92.00;;;;;;4936246;29;20074;-76
2021/08/22 06:04:17;;;;;;;9.82;9.02;;;15.90;92.30;;;;;;4938357;29;20062;-76
2021/08/22 06:06:48;;;;;;;10.15;9.35;;;15.90;92.10;;;;;;4933756;29;20048;-75
2021/08/22 06:09:20;;;;;;;10.18;9.27;;;16.00;91.30;;;;;;4935969;29;20048;-75
2021/08/22 06:11:52;;;;;;;10.43;9.50;;;16.00;91.70;;;;;;4942634;29;20063;-77
2021/08/22 06:14:24;;;;;;;10.80;9.90;;;16.00;91.70;;;;;;4937207;29;20101;-75
2021/08/22 06:16:56;;;;;;;10.20;9.30;;;15.90;92.10;;;;;;4934650;29;20051;-76
2021/08/22 06:19:28;;;;;;;10.38;9.43;;;16.00;92.40;;;;;;4936869;29;20044;-75
2021/08/22 06:22:00;;;;;;;10.32;9.43;;;16.00;92.00;;;;;;4936906;29;20113;-75
2021/08/22 06:24:32;;;;;;;10.60;9.80;;;16.00;92.20;;;;;;4936158;29;20164;-74
2021/08/22 06:27:04;;;;;;;10.32;9.52;;;16.10;92.00;;;;;;4935662;29;20050;-74
2021/08/22 06:29:36;;;;;;;10.40;9.60;;;16.10;91.50;;;;;;4937248;29;20134;-74
2021/08/22 06:32:08;;;;;;;11.20;10.27;;;16.10;91.80;;;;;;4937152;29;20515;-74
2021/08/22 06:34:40;;;;;;;10.50;9.70;;;16.10;91.90;;;;;;4933088;29;20465;-74
2021/08/22 06:37:12;;;;;;;10.52;9.73;;;16.00;92.00;;;;;;4938063;29;20435;-75
2021/08/22 06:39:48;;;;;;;11.07;10.07;;;16.00;92.20;;;;;;4937215;29;20048;-75
2021/08/22 06:42:19;;;;;;;11.23;10.32;;;16.10;91.90;;;;;;4934677;29;20059;-76
2021/08/22 06:44:52;;;;;;;11.18;10.38;;;16.10;91.80;;;;;;4936353;29;20142;-74
2021/08/22 06:47:24;;;;;;;10.90;10.00;;;16.20;92.00;;;;;;4934113;29;20050;-73
2021/08/22 06:49:56;;;;;;;11.07;10.18;;;16.30;91.80;;;;;;4935268;29;20189;-74
2021/08/22 06:52:28;;;;;;;11.32;10.43;;;16.40;91.30;;;;;;4933695;29;20579;-72
2021/08/22 06:55:00;;;;;;;11.50;10.60;;;16.50;90.90;;;;;;4933809;29;20051;-74
2021/08/22 06:57:32;;;;;;;11.48;10.50;;;16.50;90.70;;;;;;4933827;29;20048;-74
2021/08/22 07:00:05;;;;;;;11.80;10.88;;;16.70;90.40;;;;;;4934687;29;20075;-76
2021/08/22 07:02:37;;;;;;;11.57;10.68;;;16.70;89.90;;;;;;4934154;29;20135;-74
2021/08/22 07:05:10;;;;;;;12.50;11.50;;;16.80;88.40;;;;;;4933145;29;20491;-74
2021/08/22 07:07:42;;;;;;;12.45;11.45;;;16.90;88.60;;;;;;4932265;29;20046;-74
2021/08/22 07:10:14;;;;;;;11.57;10.68;;;17.00;89.10;;;;;;4932266;29;20051;-74
2021/08/22 07:12:46;;;;;;;12.15;11.13;;;17.00;89.70;;;;;;4934734;29;20147;-75
2021/08/22 07:15:18;;;;;;;12.20;11.30;;;17.10;90.40;;;;;;4935018;29;20051;-75
2021/08/22 07:17:51;;;;;;;11.95;11.05;;;17.10;90.70;;;;;;4930916;29;20054;-76
2021/08/22 07:20:24;;;;;;;11.63;10.73;;;17.00;90.50;;;;;;4930866;29;20109;-71
2021/08/22 07:22:56;;;;;;;11.65;10.75;;;17.10;90.70;;;;;;4930095;29;20569;-71
2021/08/22 07:25:28;;;;;;;11.52;10.52;;;17.20;90.50;;;;;;4931795;29;20513;-72
2021/08/22 07:28:00;;;;;;;11.32;10.43;;;17.20;90.30;;;;;;4932907;29;20062;-72
2021/08/22 07:30:32;;;;;;;12.35;11.35;;;17.20;90.10;;;;;;4931123;29;20055;-73
2021/08/22 07:33:04;;;;;;;11.95;10.85;;;17.30;89.60;;;;;;4924026;30;20549;-73
2021/08/22 07:35:35;;;;;;;12.18;11.18;;;17.40;89.30;;;;;;4932224;29;20039;-71
2021/08/22 07:38:07;;;;;;;12.30;11.30;;;17.50;89.30;;;;;;4932204;29;20063;-73
2021/08/22 07:40:39;;;;;;;12.32;11.30;;;17.60;89.10;;;;;;4931467;29;20059;-72
2021/08/22 07:43:11;;;;;;;12.43;11.43;;;17.70;89.10;;;;;;4933112;29;20050;-71
2021/08/22 07:45:43;;;;;;;12.68;11.68;;;17.90;88.70;;;;;;4930777;29;20455;-72
2021/08/22 07:48:15;;;;;;;12.05;11.15;;;18.10;88.00;;;;;;4937136;29;20426;-72
2021/08/22 07:50:47;;;;;;;13.70;12.50;;;18.30;87.80;;;;;;4937571;29;20047;-73
2021/08/22 07:53:19;;;;;;;13.32;12.23;;;18.40;87.20;;;;;;4937471;29;20051;-72
2021/08/22 07:55:52;;;;;;;13.15;12.15;;;18.70;86.00;;;;;;4936185;29;20055;-74
2021/08/22 07:58:24;;;;;;;13.32;12.13;;;18.90;86.90;;;;;;4943763;29;20063;-71
2021/08/22 08:00:56;;;;;;;13.80;12.70;;;19.10;83.40;;;;;;4935637;29;20051;-71
2021/08/22 08:03:29;;;;;;;12.90;11.90;;;19.20;84.60;;;;;;4937436;29;20059;-72
2021/08/22 08:06:01;;;;;;;13.18;12.10;;;19.30;84.50;;;;;;4935000;29;20124;-73
2021/08/22 08:08:35;;;;;;;13.63;12.52;;;19.30;84.40;;;;;;4938793;29;20055;-75
2021/08/22 08:11:07;;;;;;;12.55;11.65;;;19.30;82.90;;;;;;4935742;29;20128;-74
2021/08/22 08:13:39;;;;;;;13.30;12.30;;;19.40;83.10;;;;;;4936514;29;20075;-75
2021/08/22 08:16:11;;;;;;;12.80;11.80;;;19.30;82.20;;;;;;4934365;29;20073;-73
2021/08/22 08:18:43;;;;;;;13.48;12.35;;;19.30;83.00;;;;;;4936358;29;20531;-72
2021/08/22 08:21:15;;;;;;;12.18;11.20;;;19.30;82.90;;;;;;4932719;29;20113;-74
2021/08/22 08:23:47;;;;;;;13.60;12.50;;;19.40;83.90;;;;;;4936708;29;20485;-74
2021/08/22 08:26:20;;;;;;;13.30;12.30;;;19.40;83.00;;;;;;4934455;29;20125;-73
2021/08/22 08:28:55;;;;;;;13.02;12.02;;;19.40;80.70;;;;;;4935414;29;20069;-73
2021/08/22 08:31:27;;;;;;;13.70;12.60;;;19.60;81.70;;;;;;4933364;29;20495;-73
2021/08/22 08:33:59;;;;;;;13.85;12.73;;;19.70;80.90;;;;;;4935821;29;20069;-73
2021/08/22 08:36:31;;;;;;;13.10;12.10;;;19.80;81.00;;;;;;4935474;29;20121;-74
2021/08/22 08:39:04;;;;;;;13.80;12.80;;;19.90;83.10;;;;;;4936495;29;20119;-73
2021/08/22 08:41:35;;;;;;;13.25;12.25;;;20.10;83.30;;;;;;4935442;29;20071;-76
2021/08/22 08:44:12;;;;;;;14.02;12.70;;;20.10;82.80;;;;;;4935193;29;20183;-74
2021/08/22 08:46:52;;;;;;;13.65;12.45;;;20.20;80.10;;;;;;4935394;29;20134;-73
2021/08/22 08:49:28;;;;;;;14.20;12.90;;;20.30;81.10;;;;;;4938198;29;20062;-74
2021/08/22 08:52:01;;;;;;;13.38;12.27;;;20.50;79.20;;;;;;4939184;29;20108;-73
2021/08/22 08:55:11;;;;;;;13.68;12.68;;;20.50;78.70;;;;;;4934455;29;20130;-74
2021/08/22 08:57:43;;;;;;;13.60;12.60;;;20.60;78.60;;;;;;4934674;29;20139;-75
2021/08/22 09:00:19;;;;;;;12.25;11.35;;;20.60;77.50;;;;;;4941148;29;20136;-74
2021/08/22 09:02:51;;;;;;;12.75;11.73;;;20.60;76.50;;;;;;4935947;29;20892;-74
2021/08/22 09:05:35;;;;;;;11.93;11.02;;;20.60;79.80;;;;;;4933866;29;20417;-76
2021/08/22 09:08:44;;;;;;;12.55;11.55;;;20.70;79.50;;;;;;4935952;29;20127;-75
2021/08/22 09:11:18;;;;;;;13.10;12.00;;;20.60;79.60;;;;;;4935464;29;20728;-75
2021/08/22 09:14:12;;;;;;;13.27;12.27;;;20.60;81.30;;;;;;4936465;29;20465;-76
2021/08/22 09:17:18;;;;;;;13.30;12.27;;;20.50;80.80;;;;;;4933715;29;20055;-76
2021/08/22 09:19:56;;;;;;;13.77;12.57;;;20.50;81.40;;;;;;4934232;29;20659;-74
2021/08/22 09:23:05;;;;;;;12.70;11.70;;;20.50;82.20;;;;;;4935546;29;20417;-74
2021/08/22 09:26:15;;;;;;;12.13;11.07;;;20.50;81.50;;;;;;4935761;29;20080;-73
2021/08/22 09:29:24;;;;;;;13.75;12.55;;;20.50;82.10;;;;;;4937455;29;20135;-74
2021/08/22 09:32:53;;;;;;;12.40;11.27;;;20.60;82.30;;;;;;4937322;29;20058;-72
2021/08/22 09:35:26;;;;;;;12.57;11.57;;;20.60;81.50;;;;;;4934865;29;20767;-74
2021/08/22 09:38:20;;;;;;;12.88;11.88;;;20.60;82.10;;;;;;4937169;29;20309;-73
2021/08/22 09:41:23;;;;;;;13.05;12.05;;;20.60;81.70;;;;;;4934260;29;20487;-75
2021/08/22 09:44:33;;;;;;;13.73;12.63;;;20.50;82.50;;;;;;4934436;29;20051;-76
2021/08/22 09:47:45;;;;;;;13.30;12.30;;;20.50;82.20;;;;;;4935439;29;20526;-75
2021/08/22 09:50:52;;;;;;;13.50;12.40;;;20.50;82.20;;;;;;4932318;29;20051;-74
2021/08/22 09:53:39;;;;;;;13.20;12.10;;;20.50;82.20;;;;;;4933295;29;20137;-75
2021/08/22 09:56:33;;;;;;;13.88;12.77;;;20.60;83.00;;;;;;4936157;29;20104;-76
2021/08/22 09:59:11;;;;;;;13.52;12.48;;;20.70;82.80;;;;;;4936993;29;20051;-76
2021/08/22 10:02:10;;;;;;;12.85;11.85;;;20.70;82.00;;;;;;4934165;29;20669;-75
2021/08/22 10:05:04;;;;;;;13.07;11.95;;;20.60;81.70;;;;;;4947597;29;20055;-74
2021/08/22 10:08:02;;;;;;;13.07;12.07;;;20.60;81.50;;;;;;4933429;29;20178;-74
2021/08/22 10:10:48;;;;;;;13.80;12.70;;;20.60;81.30;;;;;;4933989;29;20056;-75
2021/08/22 10:13:20;;;;;;;13.40;12.38;;;20.60;82.20;;;;;;4935082;29;20075;-73
2021/08/22 10:15:52;;;;;;;13.93;12.82;;;20.50;82.10;;;;;;4935544;29;20558;-74
2021/08/22 10:18:25;;;;;;;12.95;11.95;;;20.50;81.80;;;;;;4936013;29;20044;-73
2021/08/22 10:21:07;;;;;;;14.65;13.55;;;20.40;81.80;;;;;;4934269;29;20603;-73
2021/08/22 10:23:41;;;;;;;12.45;11.45;;;20.40;81.00;;;;;;4932671;29;20455;-75
2021/08/22 10:26:45;;;;;;;13.13;12.13;;;20.40;81.40;;;;;;4935482;29;20052;-75
2021/08/22 10:29:21;;;;;;;13.63;12.52;;;20.40;82.20;;;;;;4942561;29;20047;-72
2021/08/22 10:31:54;;;;;;;13.60;12.60;;;20.40;81.90;;;;;;4931763;29;20043;-72
2021/08/22 10:34:26;;;;;;;13.00;12.00;;;20.50;82.80;;;;;;4933046;29;20048;-73
2021/08/22 10:36:58;;;;;;;13.95;12.85;;;20.50;82.50;;;;;;4932221;29;20139;-75
2021/08/22 10:39:30;;;;;;;13.57;12.57;;;20.50;81.50;;;;;;4933511;29;20841;-74
2021/08/22 10:42:24;;;;;;;12.90;11.90;;;20.60;82.10;;;;;;4933789;29;21050;-74
2021/08/22 10:44:56;;;;;;;13.40;12.40;;;20.60;81.90;;;;;;4932421;29;20433;-75
2021/08/22 10:47:34;;;;;;;12.73;11.75;;;20.60;81.60;;;;;;4931528;29;20051;-73
2021/08/22 10:50:06;;;;;;;13.02;12.02;;;20.60;82.30;;;;;;4934267;29;20055;-73
2021/08/22 10:52:41;;;;;;;12.65;11.57;;;20.70;82.50;;;;;;4932234;29;20056;-74
2021/08/22 10:55:13;;;;;;;13.70;12.43;;;20.80;82.50;;;;;;4932787;29;20074;-73
2021/08/22 10:57:45;;;;;;;12.98;11.98;;;20.70;81.90;;;;;;4932106;29;20071;-74
2021/08/22 11:00:20;;;;;;;12.15;11.15;;;20.80;81.50;;;;;;4933503;29;20201;-73
2021/08/22 11:03:18;;;;;;;13.20;12.15;;;20.70;80.90;;;;;;4932115;29;20135;-72
2021/08/22 11:05:50;;;;;;;12.77;11.68;;;20.80;81.20;;;;;;4931259;29;20051;-73
2021/08/22 11:08:24;;;;;;;13.80;12.70;;;20.80;81.60;;;;;;4931517;29;20043;-73
2021/08/22 11:11:00;;;;;;;12.90;11.73;;;20.90;81.10;;;;;;4935142;29;20055;-74
2021/08/22 11:13:35;;;;;;;13.93;12.82;;;21.10;81.20;;;;;;4933476;29;20067;-74
2021/08/22 11:16:09;;;;;;;13.68;12.68;;;21.30;80.70;;;;;;4935283;29;20625;-72
2021/08/22 11:18:46;;;;;;;13.10;12.10;;;21.40;80.40;;;;;;4935537;29;20042;-73
2021/08/22 11:21:30;;;;;;;13.10;12.10;;;21.60;80.00;;;;;;4933775;29;20162;-72
2021/08/22 11:24:02;;;;;;;13.65;12.45;;;21.70;80.10;;;;;;4931608;29;20105;-75
2021/08/22 11:26:35;;;;;;;13.57;12.57;;;21.80;78.90;;;;;;4932966;29;20044;-72
2021/08/22 11:29:06;;;;;;;14.88;13.70;;;21.80;77.70;;;;;;4932527;29;20144;-73
2021/08/22 11:31:38;;;;;;;14.02;12.93;;;21.90;78.90;;;;;;4932310;29;20589;-73
2021/08/22 11:34:15;;;;;;;14.50;13.40;;;22.00;78.10;;;;;;4932255;29;20859;-73
2021/08/22 11:36:49;;;;;;;14.55;13.45;;;22.00;78.00;;;;;;4930404;29;20059;-74
2021/08/22 11:39:21;;;;;;;14.43;13.32;;;22.00;78.10;;;;;;4933996;29;20071;-71
2021/08/22 11:41:54;;;;;;;14.10;13.00;;;22.00;77.70;;;;;;4934978;29;20055;-73
2021/08/22 11:44:29;;;;;;;13.65;12.65;;;22.00;77.10;;;;;;4934014;29;20058;-73
2021/08/22 11:47:02;;;;;;;14.65;13.55;;;22.00;76.30;;;;;;4930238;29;20101;-74
2021/08/22 11:49:34;;;;;;;13.73;12.73;;;22.00;75.60;;;;;;4933946;29;20135;-73
2021/08/22 11:52:06;;;;;;;14.00;12.90;;;22.00;75.50;;;;;;4933135;29;20528;-73
2021/08/22 11:54:38;;;;;;;13.43;12.43;;;22.10;77.60;;;;;;4932831;29;20146;-73
2021/08/22 11:57:22;;;;;;;13.35;12.35;;;22.20;77.60;;;;;;4931804;29;20170;-73
2021/08/22 12:00:16;;;;;;;13.65;12.57;;;22.20;77.80;;;;;;4934089;29;20144;-74
2021/08/22 12:03:02;;;;;;;14.10;13.00;;;22.30;77.60;;;;;;4934652;29;20090;-73
2021/08/22 12:05:35;;;;;;;13.20;12.18;;;22.40;76.60;;;;;;4935788;29;20054;-73
2021/08/22 12:08:09;;;;;;;14.23;13.10;;;22.40;76.10;;;;;;4932539;29;20060;-72
2021/08/22 12:10:41;;;;;;;13.77;12.68;;;22.40;76.10;;;;;;4933444;29;20064;-74
2021/08/22 12:13:18;;;;;;;13.93;12.82;;;22.30;76.40;;;;;;4933743;29;20135;-74
2021/08/22 12:15:51;;;;;;;14.43;13.32;;;22.30;74.90;;;;;;4933381;29;20136;-74
2021/08/22 12:18:26;;;;;;;13.82;12.73;;;22.10;74.20;;;;;;4948394;29;20044;-73
2021/08/22 12:21:09;;;;;;;13.77;12.57;;;22.00;77.60;;;;;;4932221;29;20039;-76
2021/08/22 12:23:47;;;;;;;14.77;13.38;;;22.00;77.00;;;;;;4932493;29;20067;-75
2021/08/22 12:26:29;;;;;;;13.65;12.65;;;22.00;78.00;;;;;;4932012;29;20058;-75
2021/08/22 12:29:09;;;;;;;13.90;12.80;;;22.00;77.30;;;;;;4931631;29;20058;-76
2021/08/22 12:31:44;;;;;;;13.63;12.63;;;21.90;77.50;;;;;;4931790;29;20157;-75
2021/08/22 12:34:17;;;;;;;13.13;12.13;;;21.90;77.90;;;;;;4935922;29;20450;-75
2021/08/22 12:36:49;;;;;;;14.23;13.13;;;21.90;78.40;;;;;;4936517;29;20591;-76
2021/08/22 12:39:21;;;;;;;13.70;12.60;;;21.90;78.40;;;;;;4935179;29;20051;-75
2021/08/22 12:41:53;;;;;;;14.23;13.13;;;21.90;78.10;;;;;;4936548;29;20594;-73
2021/08/22 12:44:26;;;;;;;14.65;13.55;;;21.90;79.50;;;;;;4937036;29;20810;-73
2021/08/22 12:47:02;;;;;;;14.98;13.85;;;22.10;77.60;;;;;;4935189;29;20042;-75
2021/08/22 12:49:34;;;;;;;15.13;13.93;;;22.40;75.00;;;;;;4931458;29;20141;-73
2021/08/22 12:52:09;;;;;;;14.85;13.60;;;22.60;76.00;;;;;;4932217;29;20048;-75
2021/08/22 12:54:42;;;;;;;15.07;13.98;;;22.70;73.10;;;;;;4933634;29;20170;-74
2021/08/22 12:57:14;;;;;;;14.68;13.57;;;22.60;75.40;;;;;;4932909;29;20136;-72
2021/08/22 12:59:46;;;;;;;14.63;13.52;;;22.70;74.40;;;;;;4934881;29;20689;-74
2021/08/22 13:02:17;;;;;;;15.85;14.65;;;22.80;74.80;;;;;;4933636;29;20125;-73
2021/08/22 13:04:51;;;;;;;14.70;13.57;;;22.90;77.60;;;;;;4929811;29;20055;-73
2021/08/22 13:07:23;;;;;;;15.20;14.10;;;23.00;76.30;;;;;;4933786;29;20147;-73
2021/08/22 13:09:55;;;;;;;15.55;14.30;;;22.90;74.60;;;;;;4934844;29;20104;-74
2021/08/22 13:12:26;;;;;;;14.98;13.88;;;22.80;76.10;;;;;;4935138;29;20575;-72
2021/08/22 13:15:00;;;;;;;15.02;13.82;;;22.80;74.50;;;;;;4935581;29;20070;-73